createdAt,value
2022-08-16T00:00:04.277Z,96.97
2022-08-16T00:02:33.450Z,97.39
2022-08-16T00:05:01.112Z,97.49
2022-08-16T00:07:29.750Z,97.74
2022-08-16T00:09:58.736Z,97.84
2022-08-16T00:12:28.177Z,97.32
2022-08-16T00:14:56.523Z,97.44
2022-08-16T00:17:24.657Z,97.34
2022-08-16T00:19:53.372Z,97.58
2022-08-16T00:22:24.696Z,97.64
2022-08-16T00:24:53.550Z,97.64
2022-08-16T00:27:21.571Z,97.68
2022-08-16T00:29:48.198Z,97.60
2022-08-16T00:32:35.154Z,97.38
2022-08-16T00:35:01.901Z,97.55
2022-08-16T00:37:56.980Z,97.45
2022-08-16T00:40:34.841Z,97.59
2022-08-16T00:43:12.316Z,97.81
2022-08-16T00:45:58.043Z,97.70
2022-08-16T00:48:30.586Z,97.90
2022-08-16T00:51:00.160Z,98.06
2022-08-16T00:53:27.251Z,98.03
2022-08-16T00:56:00.679Z,98.61
2022-08-16T00:58:35.042Z,98.65
2022-08-16T01:01:03.165Z,98.53
2022-08-16T01:03:36.165Z,98.94
2022-08-16T01:06:40.220Z,98.74
2022-08-16T01:08:56.628Z,97.93
2022-08-16T01:11:27.950Z,97.58
2022-08-16T01:14:13.630Z,97.69
2022-08-16T01:16:43.121Z,97.50
2022-08-16T01:19:36.941Z,97.89
2022-08-16T01:22:46.807Z,97.79
2022-08-16T01:25:21.634Z,97.50
2022-08-16T01:27:52.684Z,97.57
2022-08-16T01:30:29.467Z,97.58
2022-08-16T01:33:02.316Z,97.52
2022-08-16T01:35:36.247Z,97.47
2022-08-16T01:38:19.413Z,97.50
2022-08-16T01:40:47.116Z,96.93
2022-08-16T01:43:14.328Z,97.19
2022-08-16T01:45:43.481Z,97.89
2022-08-16T01:48:19.094Z,98.34
2022-08-16T01:51:09.299Z,98.27
2022-08-16T01:53:40.642Z,98.39
2022-08-16T01:56:08.152Z,98.49
2022-08-16T01:58:51.509Z,98.46
2022-08-16T02:01:18.453Z,98.24
2022-08-16T02:03:45.007Z,98.02
2022-08-16T02:06:33.768Z,98.12
2022-08-16T02:09:05.180Z,98.03
2022-08-16T02:11:47.930Z,98.42
2022-08-16T02:14:21.732Z,97.77
2022-08-16T02:16:49.263Z,96.49
2022-08-16T02:19:18.519Z,95.89
2022-08-16T02:22:09.078Z,96.49
2022-08-16T02:24:40.814Z,97.03
2022-08-16T02:27:08.335Z,96.59
2022-08-16T02:29:35.050Z,96.42
2022-08-16T02:32:03.881Z,96.62
2022-08-16T02:34:50.184Z,96.39
2022-08-16T02:37:20.881Z,96.49
2022-08-16T02:39:47.726Z,96.90
2022-08-16T02:42:20.943Z,96.89
2022-08-16T02:44:48.975Z,97.37
2022-08-16T02:47:24.879Z,97.51
2022-08-16T02:49:58.962Z,97.82
2022-08-16T02:52:39.321Z,97.62
2022-08-16T02:55:11.561Z,97.44
2022-08-16T02:57:54.310Z,97.30
2022-08-16T03:00:33.837Z,97.07
2022-08-16T03:03:01.800Z,96.72
2022-08-16T03:05:31.753Z,96.65
2022-08-16T03:08:00.059Z,96.56
2022-08-16T03:10:33.556Z,96.71
2022-08-16T03:13:00.818Z,96.36
2022-08-16T03:15:28.500Z,96.11
2022-08-16T03:17:56.516Z,95.88
2022-08-16T03:20:32.278Z,96.19
2022-08-16T03:22:59.769Z,96.31
2022-08-16T03:25:40.907Z,96.85
2022-08-16T03:28:11.703Z,96.92
2022-08-16T03:30:38.578Z,96.76
2022-08-16T03:33:05.855Z,96.59
2022-08-16T03:35:40.139Z,96.84
2022-08-16T03:38:32.787Z,97.06
2022-08-16T03:40:57.335Z,97.11
2022-08-16T03:43:24.646Z,97.31
2022-08-16T03:46:11.180Z,97.04
2022-08-16T03:48:40.400Z,96.42
2022-08-16T03:51:12.267Z,96.83
2022-08-16T03:53:39.582Z,96.50
2022-08-16T03:56:07.764Z,96.88
2022-08-16T03:58:45.551Z,96.67
2022-08-16T04:01:14.960Z,96.64
2022-08-16T04:03:42.720Z,96.82
2022-08-16T04:06:10.912Z,97.24
2022-08-16T04:08:39.551Z,97.16
2022-08-16T04:11:06.589Z,96.54
2022-08-16T04:14:00.532Z,96.14
2022-08-16T04:16:27.545Z,96.49
2022-08-16T04:19:02.726Z,97.10
2022-08-16T04:21:33.461Z,97.08
2022-08-16T04:24:01.535Z,97.47
2022-08-16T04:26:30.892Z,96.28
2022-08-16T04:29:16.761Z,95.64
2022-08-16T04:31:55.799Z,95.20
2022-08-16T04:34:25.015Z,95.03
2022-08-16T04:36:53.647Z,94.22
2022-08-16T04:39:23.869Z,94.53
2022-08-16T04:41:56.683Z,95.57
2022-08-16T04:44:33.129Z,96.10
2022-08-16T04:47:23.878Z,96.34
2022-08-16T04:49:52.264Z,96.70
2022-08-16T04:52:33.200Z,96.79
2022-08-16T04:55:03.828Z,96.77
2022-08-16T04:57:30.500Z,97.14
2022-08-16T04:59:57.376Z,97.06
2022-08-16T05:02:42.215Z,96.74
2022-08-16T05:05:17.196Z,97.02
2022-08-16T05:07:58.228Z,97.42
2022-08-16T05:10:28.443Z,97.57
2022-08-16T05:12:57.419Z,97.27
2022-08-16T05:15:24.552Z,96.63
2022-08-16T05:17:58.673Z,96.68
2022-08-16T05:20:39.326Z,96.72
2022-08-16T05:23:14.917Z,97.03
2022-08-16T05:25:48.296Z,97.15
2022-08-16T05:28:16.511Z,97.30
2022-08-16T05:30:43.749Z,97.12
2022-08-16T05:33:16.691Z,97.32
2022-08-16T05:35:55.181Z,96.90
2022-08-16T05:38:32.305Z,96.99
2022-08-16T05:41:06.722Z,97.00
2022-08-16T05:43:43.454Z,96.49
2022-08-16T05:46:29.028Z,96.47
2022-08-16T05:49:01.695Z,96.27
2022-08-16T05:51:39.104Z,96.32
2022-08-16T05:54:08.171Z,96.31
2022-08-16T05:56:37.710Z,96.44
2022-08-16T05:59:06.411Z,96.03
2022-08-16T06:01:38.330Z,95.92
2022-08-16T06:04:13.549Z,95.62
2022-08-16T06:06:56.857Z,95.74
2022-08-16T06:09:25.905Z,95.84
2022-08-16T06:12:10.770Z,95.44
2022-08-16T06:14:37.721Z,93.97
2022-08-16T06:17:07.300Z,94.65
2022-08-16T06:19:35.809Z,95.22
2022-08-16T06:22:02.567Z,95.62
2022-08-16T06:24:54.127Z,94.47
2022-08-16T06:32:55.245Z,94.00
2022-08-16T06:35:28.244Z,93.15
2022-08-16T06:38:32.039Z,92.14
2022-08-16T06:40:59.028Z,91.72
2022-08-16T06:43:43.376Z,92.18
2022-08-16T06:46:34.627Z,90.57
2022-08-16T06:49:11.768Z,90.66
2022-08-16T06:51:46.448Z,88.66
2022-08-16T06:54:19.209Z,88.77
2022-08-16T06:56:46.245Z,89.47
2022-08-16T06:59:25.661Z,89.73
2022-08-16T07:01:55.178Z,89.13
2022-08-16T07:04:32.377Z,85.96
2022-08-16T07:07:36.322Z,86.94
2022-08-16T07:13:58.460Z,86.71
2022-08-16T07:16:27.994Z,85.81
2022-08-16T07:19:01.580Z,85.92
2022-08-16T07:21:42.240Z,85.14
2022-08-16T07:24:29.564Z,85.35
2022-08-16T07:26:58.421Z,84.62
2022-08-16T07:29:27.451Z,83.98
2022-08-16T07:32:00.566Z,84.87
2022-08-16T07:34:35.526Z,84.72
2022-08-16T07:37:08.445Z,84.72
2022-08-16T07:39:43.293Z,84.83
2022-08-16T07:42:26.019Z,82.89
2022-08-16T07:44:58.091Z,80.32
2022-08-16T07:47:31.556Z,81.07
2022-08-16T07:50:00.167Z,80.15
2022-08-16T07:52:38.847Z,79.67
2022-08-16T07:55:06.916Z,78.07
2022-08-16T07:58:01.105Z,76.18
2022-08-16T08:00:30.882Z,77.47
2022-08-16T08:02:57.495Z,77.32
2022-08-16T08:05:35.312Z,76.70
2022-08-16T08:08:11.972Z,76.87
2022-08-16T08:10:56.213Z,76.06
2022-08-16T08:13:42.521Z,75.47
2022-08-16T08:16:16.897Z,73.92
2022-08-16T08:18:50.206Z,74.50
2022-08-16T08:21:19.441Z,72.18
2022-08-16T08:23:57.782Z,70.67
2022-08-16T08:26:25.577Z,69.38
2022-08-16T08:28:54.931Z,69.62
2022-08-16T08:31:28.318Z,70.51
2022-08-16T08:33:59.335Z,69.55
2022-08-16T08:36:33.167Z,69.82
2022-08-16T08:38:59.996Z,69.18
2022-08-16T08:41:34.847Z,68.09
2022-08-16T08:44:28.563Z,67.06
2022-08-16T08:47:01.591Z,66.02
2022-08-16T08:49:50.325Z,65.67
2022-08-16T08:52:35.273Z,65.04
2022-08-16T08:55:14.276Z,66.53
2022-08-16T08:57:47.577Z,65.35
2022-08-16T09:00:21.186Z,65.07
2022-08-16T09:02:52.249Z,65.34
2022-08-16T09:05:35.884Z,65.59
2022-08-16T09:08:15.709Z,65.03
2022-08-16T09:10:44.636Z,64.94
2022-08-16T09:13:11.920Z,64.82
2022-08-16T09:15:39.824Z,63.24
2022-08-16T09:18:24.856Z,61.12
2022-08-16T09:20:59.269Z,58.62
2022-08-16T09:23:36.715Z,60.14
2022-08-16T09:26:45.001Z,61.87
2022-08-16T09:29:15.551Z,61.59
2022-08-16T09:31:40.961Z,60.58
2022-08-16T09:34:08.368Z,60.63
2022-08-16T09:36:36.048Z,60.20
2022-08-16T09:39:03.813Z,57.62
2022-08-16T09:41:31.801Z,56.63
2022-08-16T09:45:09.467Z,55.96
2022-08-16T09:46:49.969Z,55.39
2022-08-16T09:49:19.866Z,54.96
2022-08-16T09:51:48.390Z,53.69
2022-08-16T09:54:20.900Z,53.83
2022-08-16T09:56:53.206Z,55.17
2022-08-16T09:59:23.486Z,54.38
2022-08-16T10:01:51.591Z,54.01
2022-08-16T10:04:30.885Z,52.84
2022-08-16T10:07:14.962Z,53.79
2022-08-16T10:09:53.634Z,52.20
2022-08-16T10:12:43.220Z,52.94
2022-08-16T10:15:15.408Z,52.07
2022-08-16T10:17:59.977Z,51.46
2022-08-16T10:20:34.150Z,53.09
2022-08-16T10:23:07.462Z,49.64
2022-08-16T10:27:21.946Z,51.09
2022-08-16T10:28:30.043Z,50.10
2022-08-16T10:31:00.711Z,50.75
2022-08-16T10:33:33.237Z,49.87
2022-08-16T10:36:04.452Z,49.29
2022-08-16T10:38:36.834Z,47.08
2022-08-16T10:41:07.105Z,46.85
2022-08-16T10:43:38.249Z,46.54
2022-08-16T10:46:39.768Z,47.31
2022-08-16T10:48:55.145Z,47.01
2022-08-16T10:51:34.659Z,46.24
2022-08-16T10:54:28.483Z,46.42
2022-08-16T10:56:57.089Z,46.34
2022-08-16T10:59:39.272Z,47.74
2022-08-16T11:02:59.478Z,46.39
2022-08-16T11:05:14.392Z,45.06
2022-08-16T11:07:52.186Z,45.63
2022-08-16T11:19:04.742Z,44.24
2022-08-16T11:22:11.187Z,42.43
2022-08-16T11:24:39.614Z,41.99
2022-08-16T11:27:35.694Z,41.91
2022-08-16T11:29:56.678Z,41.13
2022-08-16T11:32:31.352Z,40.68
2022-08-16T11:35:10.762Z,40.99
2022-08-16T11:40:33.994Z,40.90
2022-08-16T11:43:04.599Z,41.57
2022-08-16T11:45:33.818Z,39.90
2022-08-16T11:48:04.174Z,39.83
2022-08-16T11:50:36.111Z,40.12
2022-08-16T11:53:05.431Z,40.02
2022-08-16T11:55:38.181Z,38.79
2022-08-16T11:58:14.789Z,38.52
2022-08-16T12:00:51.696Z,38.49
2022-08-16T12:03:34.235Z,38.02
2022-08-16T12:06:25.515Z,38.37
2022-08-16T12:09:01.113Z,38.84
2022-08-16T12:11:31.607Z,38.77
2022-08-16T12:14:04.540Z,39.44
2022-08-16T12:16:34.303Z,38.97
2022-08-16T12:19:03.057Z,38.54
2022-08-16T12:21:58.932Z,38.18
2022-08-16T12:24:22.303Z,38.50
2022-08-16T12:26:50.594Z,37.81
2022-08-16T12:29:17.140Z,37.34
2022-08-16T12:32:01.629Z,37.40
2022-08-16T12:34:30.329Z,37.21
2022-08-16T12:36:57.049Z,36.23
2022-08-16T12:39:29.098Z,37.03
2022-08-16T12:41:56.681Z,36.24
2022-08-16T12:44:26.022Z,36.67
2022-08-16T12:47:11.600Z,35.81
2022-08-16T12:49:41.920Z,36.00
2022-08-16T12:52:09.304Z,36.36
2022-08-16T12:54:57.973Z,35.25
2022-08-16T12:57:25.640Z,34.49
2022-08-16T13:00:06.736Z,34.44
2022-08-16T13:02:36.622Z,34.40
2022-08-16T13:05:04.437Z,35.79
2022-08-16T13:07:37.587Z,34.88
2022-08-16T13:10:21.242Z,35.56
2022-08-16T13:13:01.572Z,35.80
2022-08-16T13:15:28.932Z,35.89
2022-08-16T13:17:57.939Z,35.77
2022-08-16T13:20:28.955Z,36.05
2022-08-16T13:23:09.142Z,35.56
2022-08-16T13:25:39.932Z,34.36
2022-08-16T13:28:07.030Z,34.48
2022-08-16T13:30:43.276Z,35.29
2022-08-16T13:33:17.550Z,36.24
2022-08-16T13:35:56.098Z,34.39
2022-08-16T13:38:25.776Z,33.85
2022-08-16T13:40:56.995Z,33.94
2022-08-16T13:43:27.270Z,34.09
2022-08-16T13:45:56.043Z,33.80
2022-08-16T13:48:25.159Z,35.24
2022-08-16T13:50:54.663Z,34.71
2022-08-16T13:53:24.109Z,35.76
2022-08-16T13:55:58.615Z,35.14
2022-08-16T13:58:36.757Z,35.96
2022-08-16T14:01:09.936Z,35.94
2022-08-16T14:03:38.786Z,36.26
2022-08-16T14:06:10.837Z,36.89
2022-08-16T14:08:42.186Z,36.31
2022-08-16T14:11:12.110Z,36.31
2022-08-16T14:13:39.690Z,35.70
2022-08-16T14:16:23.616Z,34.59
2022-08-16T14:18:53.045Z,35.96
2022-08-16T14:21:22.090Z,34.96
2022-08-16T14:23:52.318Z,32.84
2022-08-16T14:26:21.059Z,32.82
2022-08-16T14:28:50.460Z,32.14
2022-08-16T14:31:17.836Z,32.50
2022-08-16T14:33:45.075Z,33.11
2022-08-16T14:36:11.910Z,33.89
2022-08-16T14:38:45.715Z,34.12
2022-08-16T14:41:14.213Z,35.42
2022-08-16T14:43:40.920Z,33.83
2022-08-16T14:46:07.814Z,31.09
2022-08-16T14:48:34.727Z,32.03
2022-08-16T14:51:01.642Z,31.64
2022-08-16T14:53:31.334Z,31.58
2022-08-16T14:55:59.927Z,31.72
2022-08-16T14:58:34.498Z,31.00
2022-08-16T15:01:04.784Z,30.00
2022-08-16T15:03:33.214Z,30.30
2022-08-16T15:06:04.674Z,30.29
2022-08-16T15:08:35.109Z,29.84
2022-08-16T15:11:05.982Z,29.13
2022-08-16T15:13:34.657Z,28.81
2022-08-16T15:16:03.704Z,28.40
2022-08-16T15:18:32.345Z,29.19
2022-08-16T15:21:01.846Z,28.09
2022-08-16T15:23:33.922Z,27.59
2022-08-16T15:26:02.760Z,28.08
2022-08-16T15:28:32.689Z,27.56
2022-08-16T15:31:04.703Z,28.68
2022-08-16T15:33:43.349Z,28.44
2022-08-16T15:36:17.476Z,28.74
2022-08-16T15:39:02.213Z,28.37
2022-08-16T15:41:42.788Z,29.52
2022-08-16T15:44:12.822Z,30.79
2022-08-16T15:46:55.337Z,31.53
2022-08-16T15:49:37.311Z,33.23
2022-08-16T15:52:11.237Z,35.10
2022-08-16T15:54:52.711Z,34.76
2022-08-16T15:57:20.953Z,31.70
2022-08-16T15:59:52.757Z,29.96
2022-08-16T16:02:29.417Z,29.26
2022-08-16T16:05:01.798Z,29.61
2022-08-16T16:07:30.996Z,31.21
2022-08-16T16:09:59.616Z,31.13
2022-08-16T16:12:52.911Z,31.15
2022-08-16T16:15:22.588Z,32.36
2022-08-16T16:17:50.839Z,33.48
2022-08-16T16:20:18.610Z,33.89
2022-08-16T16:22:46.486Z,33.74
2022-08-16T16:25:16.045Z,33.01
2022-08-16T16:27:43.551Z,34.49
2022-08-16T16:30:37.578Z,33.82
2022-08-16T16:32:58.547Z,33.54
2022-08-16T16:35:32.722Z,35.00
2022-08-16T16:38:00.250Z,33.31
2022-08-16T16:40:32.537Z,33.56
2022-08-16T16:43:00.302Z,35.49
2022-08-16T16:45:34.658Z,35.14
2022-08-16T16:48:11.983Z,35.39
2022-08-16T16:50:44.714Z,35.49
2022-08-16T16:53:17.076Z,34.96
2022-08-16T16:55:51.563Z,35.11
2022-08-16T16:58:38.867Z,36.33
2022-08-16T17:01:08.203Z,35.01
2022-08-16T17:03:35.585Z,35.81
2022-08-16T17:06:10.292Z,35.24
2022-08-16T17:08:41.375Z,36.29
2022-08-16T17:11:12.366Z,35.74
2022-08-16T17:13:40.223Z,35.83
2022-08-16T17:16:08.696Z,36.52
2022-08-16T17:19:17.632Z,36.82
2022-08-16T17:21:36.926Z,36.50
2022-08-16T17:24:17.415Z,36.32
2022-08-16T17:26:48.960Z,36.28
2022-08-16T17:29:15.866Z,36.94
2022-08-16T17:31:43.554Z,37.11
2022-08-16T17:34:29.570Z,36.81
2022-08-16T17:36:58.706Z,37.33
2022-08-16T17:39:29.306Z,37.76
2022-08-16T17:41:57.232Z,37.61
2022-08-16T17:44:23.984Z,37.92
2022-08-16T17:46:52.404Z,38.04
2022-08-16T17:49:19.580Z,38.41
2022-08-16T17:51:46.275Z,38.34
2022-08-16T17:54:20.240Z,38.58
2022-08-16T17:57:01.417Z,38.68
2022-08-16T17:59:29.014Z,38.86
2022-08-16T18:01:56.459Z,39.00
2022-08-16T18:04:48.399Z,39.39
2022-08-16T18:07:10.331Z,39.69
2022-08-16T18:09:40.667Z,39.71
2022-08-16T18:12:20.503Z,39.94
2022-08-16T18:15:09.035Z,40.25
2022-08-16T18:17:35.976Z,40.53
2022-08-16T18:20:02.938Z,40.61
2022-08-16T18:22:32.365Z,41.34
2022-08-16T18:24:59.037Z,41.57
2022-08-16T18:27:27.483Z,42.31
2022-08-16T18:29:54.421Z,42.52
2022-08-16T18:32:24.439Z,42.87
2022-08-16T18:34:51.485Z,42.96
2022-08-16T18:37:18.078Z,43.62
2022-08-16T18:39:44.765Z,44.17
2022-08-16T18:42:13.887Z,44.54
2022-08-16T18:44:43.874Z,44.51
2022-08-16T18:47:10.863Z,44.55
2022-08-16T18:49:37.746Z,45.30
2022-08-16T18:52:05.197Z,45.31
2022-08-16T18:54:33.495Z,44.94
2022-08-16T18:57:02.417Z,45.47
2022-08-16T18:59:33.241Z,45.56
2022-08-16T19:02:05.185Z,46.09
2022-08-16T19:04:55.075Z,46.50
2022-08-16T19:07:31.222Z,46.75
2022-08-16T19:10:02.079Z,47.06
2022-08-16T19:12:37.886Z,46.99
2022-08-16T19:15:15.936Z,47.00
2022-08-16T19:17:43.765Z,47.21
2022-08-16T19:20:11.518Z,47.46
2022-08-16T19:23:02.073Z,47.70
2022-08-16T19:25:39.467Z,48.09
2022-08-16T19:28:33.340Z,48.55
2022-08-16T19:31:03.313Z,49.26
2022-08-16T19:33:37.026Z,49.61
2022-08-16T19:36:04.316Z,50.87
2022-08-16T19:38:31.285Z,51.34
2022-08-16T19:40:57.820Z,51.86
2022-08-16T19:43:24.412Z,53.01
2022-08-16T19:45:53.093Z,53.23
2022-08-16T19:48:20.439Z,53.36
2022-08-16T19:50:46.988Z,53.59
2022-08-16T19:53:19.221Z,53.89
2022-08-16T19:55:47.618Z,54.83
2022-08-16T19:58:16.880Z,54.83
2022-08-16T20:00:45.671Z,54.82
2022-08-16T20:03:18.218Z,54.93
2022-08-16T20:05:45.151Z,54.96
2022-08-16T20:08:11.875Z,55.31
2022-08-16T20:10:40.788Z,55.49
2022-08-16T20:13:17.503Z,55.67
2022-08-16T20:16:39.394Z,55.67
2022-08-16T20:19:06.837Z,55.84
2022-08-16T20:21:33.440Z,55.98
2022-08-16T20:24:22.609Z,56.21
2022-08-16T20:26:46.460Z,56.59
2022-08-16T20:29:13.148Z,58.10
2022-08-16T20:31:39.756Z,59.82
2022-08-16T20:34:08.851Z,61.45
2022-08-16T20:36:35.710Z,62.57
2022-08-16T20:39:04.728Z,63.42
2022-08-16T20:41:31.727Z,64.09
2022-08-16T20:43:58.272Z,64.92
2022-08-16T20:46:26.179Z,64.96
2022-08-16T20:48:52.997Z,65.44
2022-08-16T20:51:19.577Z,65.21
2022-08-16T20:53:46.127Z,64.77
2022-08-16T20:56:12.801Z,64.34
2022-08-16T20:58:39.674Z,64.27
2022-08-16T21:01:07.263Z,65.01
2022-08-16T21:03:34.026Z,65.34
2022-08-16T21:06:02.239Z,66.14
2022-08-16T21:08:53.604Z,66.37
2022-08-16T21:11:16.424Z,66.78
2022-08-16T21:13:43.347Z,66.60
2022-08-16T21:16:10.206Z,66.78
2022-08-16T21:18:36.676Z,66.23
2022-08-16T21:21:03.295Z,66.56
2022-08-16T21:23:30.131Z,67.09
2022-08-16T21:25:58.510Z,67.63
2022-08-16T21:28:39.381Z,68.14
2022-08-16T21:31:09.348Z,69.17
2022-08-16T21:33:35.965Z,69.81
2022-08-16T21:36:02.613Z,70.29
2022-08-16T21:38:30.770Z,71.47
2022-08-16T21:40:59.405Z,72.12
2022-08-16T21:43:32.069Z,73.48
2022-08-16T21:46:01.072Z,73.74
2022-08-16T21:48:33.486Z,73.70
2022-08-16T21:51:00.830Z,73.53
2022-08-16T21:53:28.427Z,73.55
2022-08-16T21:55:57.878Z,73.63
2022-08-16T21:58:25.568Z,73.55
2022-08-16T22:00:53.224Z,73.57
2022-08-16T22:03:21.155Z,73.47
2022-08-16T22:05:59.926Z,73.31
2022-08-16T22:08:39.447Z,74.13
2022-08-16T22:11:14.326Z,75.44
2022-08-16T22:13:40.840Z,75.59
2022-08-16T22:16:08.761Z,75.84
2022-08-16T22:18:35.483Z,75.87
2022-08-16T22:21:02.021Z,76.49
2022-08-16T22:23:28.633Z,76.58
2022-08-16T22:25:56.383Z,76.27
2022-08-16T22:28:23.659Z,76.24
2022-08-16T22:30:50.744Z,75.99
2022-08-16T22:33:21.825Z,76.33
2022-08-16T22:35:53.601Z,76.39
2022-08-16T22:38:54.813Z,77.54
2022-08-16T22:41:07.332Z,77.77
2022-08-16T22:43:33.960Z,78.02
2022-08-16T22:46:00.699Z,78.22
2022-08-16T22:48:27.463Z,77.76
2022-08-16T22:50:54.101Z,77.86
2022-08-16T22:53:20.706Z,78.34
2022-08-16T22:55:47.571Z,78.01
2022-08-16T22:58:14.161Z,77.72
2022-08-16T23:00:41.411Z,77.60
2022-08-16T23:03:12.431Z,77.61
2022-08-16T23:05:44.400Z,78.37
2022-08-16T23:08:16.360Z,78.53
2022-08-16T23:11:03.168Z,79.15
2022-08-16T23:13:30.144Z,79.13
2022-08-16T23:16:11.346Z,79.67
2022-08-16T23:18:39.291Z,79.74
2022-08-16T23:21:09.540Z,79.02
2022-08-16T23:23:37.483Z,79.09
2022-08-16T23:26:43.755Z,79.03
2022-08-16T23:28:51.868Z,79.52
2022-08-16T23:31:18.820Z,80.52
2022-08-16T23:33:45.967Z,81.39
2022-08-16T23:36:12.625Z,80.94
2022-08-16T23:38:39.850Z,80.97
2022-08-16T23:41:11.870Z,80.78
2022-08-16T23:43:41.941Z,80.77
2022-08-16T23:46:13.922Z,80.80
2022-08-16T23:50:00.744Z,80.74
2022-08-16T23:51:28.965Z,80.57
2022-08-16T23:53:56.053Z,80.62
2022-08-16T23:56:22.685Z,80.46
2022-08-16T23:58:54.449Z,80.72
